createdAt,value
2023-03-24T00:00:36.657Z,97475.84
2023-03-24T00:03:04.497Z,97468.97
2023-03-24T00:05:32.273Z,97465.56
2023-03-24T00:08:02.261Z,97457.00
2023-03-24T00:10:30.652Z,97456.66
2023-03-24T00:13:01.443Z,97457.03
2023-03-24T00:15:29.276Z,97453.78
2023-03-24T00:17:58.158Z,97456.72
2023-03-24T00:20:26.528Z,97439.84
2023-03-24T00:22:58.961Z,97445.19
2023-03-24T00:25:28.907Z,97451.56
2023-03-24T00:27:57.534Z,97450.56
2023-03-24T00:30:26.052Z,97452.19
2023-03-24T00:32:54.223Z,97461.34
2023-03-24T00:35:22.475Z,97460.72
2023-03-24T00:37:52.053Z,97461.16
2023-03-24T00:40:21.092Z,97464.81
2023-03-24T00:42:49.778Z,97465.50
2023-03-24T00:45:20.375Z,97470.16
2023-03-24T00:47:54.036Z,97458.53
2023-03-24T00:50:26.985Z,97467.50
2023-03-24T00:52:55.852Z,97457.00
2023-03-24T00:55:23.626Z,97462.59
2023-03-24T00:57:51.742Z,97455.91
2023-03-24T01:00:21.682Z,97460.97
2023-03-24T01:02:53.822Z,97461.59
2023-03-24T01:05:23.432Z,97466.00
2023-03-24T01:07:56.442Z,97461.03
2023-03-24T01:10:26.707Z,97460.44
2023-03-24T01:12:59.019Z,97453.38
2023-03-24T01:15:29.660Z,97440.91
2023-03-24T01:17:57.870Z,97445.31
2023-03-24T01:20:25.697Z,97458.78
2023-03-24T01:22:53.536Z,97458.09
2023-03-24T01:25:22.396Z,97446.41
2023-03-24T01:27:50.871Z,97441.59
2023-03-24T01:30:21.685Z,97442.03
2023-03-24T01:32:50.236Z,97450.84
2023-03-24T01:35:18.290Z,97458.13
2023-03-24T01:37:46.885Z,97455.28
2023-03-24T01:40:22.968Z,97455.19
2023-03-24T01:42:53.651Z,97451.13
2023-03-24T01:45:39.912Z,97448.94
2023-03-24T01:48:10.450Z,97452.53
2023-03-24T01:50:38.532Z,97455.22
2023-03-24T01:53:06.554Z,97457.63
2023-03-24T01:55:34.507Z,97448.91
2023-03-24T01:58:03.716Z,97448.25
2023-03-24T02:00:45.339Z,97459.25
2023-03-24T02:03:45.961Z,97449.34
2023-03-24T02:06:14.865Z,97457.69
2023-03-24T02:08:49.833Z,97456.09
2023-03-24T02:11:17.608Z,97447.78
2023-03-24T02:13:52.849Z,97459.94
2023-03-24T02:16:30.061Z,97465.53
2023-03-24T02:19:38.604Z,97468.28
2023-03-24T02:22:29.636Z,97464.97
2023-03-24T02:25:03.049Z,97450.91
2023-03-24T02:27:48.925Z,97446.69
2023-03-24T02:30:47.815Z,97443.16
2023-03-24T02:33:19.082Z,97451.44
2023-03-24T02:36:15.472Z,97439.78
2023-03-24T02:38:49.492Z,97422.28
2023-03-24T02:41:31.949Z,97424.44
2023-03-24T02:44:40.801Z,97435.81
2023-03-24T02:47:30.846Z,97428.94
2023-03-24T02:50:20.223Z,97428.91
2023-03-24T02:52:56.547Z,97422.66
2023-03-24T02:55:28.326Z,97426.53
2023-03-24T02:58:17.106Z,97427.47
2023-03-24T03:00:52.649Z,97430.19
2023-03-24T03:03:41.745Z,97422.22
2023-03-24T03:06:36.516Z,97425.59
2023-03-24T03:09:07.872Z,97424.28
2023-03-24T03:11:36.085Z,97415.34
2023-03-24T03:14:12.903Z,97416.78
2023-03-24T03:16:53.493Z,97421.91
2023-03-24T03:19:23.144Z,97424.81
2023-03-24T03:21:50.968Z,97423.50
2023-03-24T03:24:26.643Z,97417.78
2023-03-24T03:26:57.520Z,97414.53
2023-03-24T03:29:26.514Z,97412.41
2023-03-24T03:32:01.035Z,97416.56
2023-03-24T03:34:55.329Z,97415.84
2023-03-24T03:37:50.391Z,97420.75
2023-03-24T03:40:24.785Z,97420.50
2023-03-24T03:43:00.422Z,97416.59
2023-03-24T03:45:28.263Z,97418.00
2023-03-24T03:47:56.165Z,97416.97
2023-03-24T03:50:24.054Z,97422.31
2023-03-24T03:52:52.874Z,97426.91
2023-03-24T03:55:20.641Z,97434.56
2023-03-24T03:57:48.437Z,97438.06
2023-03-24T04:00:36.919Z,97432.84
2023-03-24T04:03:30.690Z,97438.06
2023-03-24T04:06:14.356Z,97435.25
2023-03-24T04:08:48.068Z,97439.78
2023-03-24T04:11:43.215Z,97441.84
2023-03-24T04:14:48.931Z,97450.25
2023-03-24T04:17:53.983Z,97450.38
2023-03-24T04:20:48.592Z,97451.09
2023-03-24T04:23:26.445Z,97451.72
2023-03-24T04:26:34.562Z,97448.00
2023-03-24T04:29:10.472Z,97443.75
2023-03-24T04:31:43.558Z,97448.28
2023-03-24T04:34:29.504Z,97446.91
2023-03-24T04:37:12.596Z,97443.75
2023-03-24T04:40:02.668Z,97446.06
2023-03-24T04:42:45.357Z,97445.09
2023-03-24T04:45:13.745Z,97445.13
2023-03-24T04:48:17.816Z,97448.53
2023-03-24T04:50:55.348Z,97456.59
2023-03-24T04:53:24.255Z,97457.28
2023-03-24T04:56:28.492Z,97462.16
2023-03-24T04:59:02.981Z,97474.72
2023-03-24T05:01:30.959Z,97470.78
2023-03-24T05:04:18.293Z,97472.91
2023-03-24T05:06:46.880Z,97473.34
2023-03-24T05:09:18.561Z,97476.94
2023-03-24T05:11:46.350Z,97483.09
2023-03-24T05:14:14.725Z,97480.31
2023-03-24T05:16:42.580Z,97485.47
2023-03-24T05:19:12.051Z,97482.97
2023-03-24T05:21:41.988Z,97488.91
2023-03-24T05:24:09.981Z,97484.56
2023-03-24T05:26:37.909Z,97474.91
2023-03-24T05:29:16.537Z,97474.69
2023-03-24T05:31:45.552Z,97471.66
2023-03-24T05:34:18.356Z,97471.88
2023-03-24T05:37:14.359Z,97484.28
2023-03-24T05:39:42.132Z,97466.06
2023-03-24T05:42:23.359Z,97475.41
2023-03-24T05:44:51.464Z,97473.81
2023-03-24T05:47:27.338Z,97476.25
2023-03-24T05:49:56.055Z,97476.78
2023-03-24T05:52:24.401Z,97474.09
2023-03-24T05:54:59.243Z,97472.69
2023-03-24T05:57:30.447Z,97475.25
2023-03-24T06:00:16.353Z,97473.34
2023-03-24T06:02:52.702Z,97483.25
2023-03-24T06:05:27.693Z,97472.56
2023-03-24T06:07:58.553Z,97476.09
2023-03-24T06:10:28.501Z,97485.59
2023-03-24T06:12:57.685Z,97479.22
2023-03-24T06:15:27.989Z,97486.75
2023-03-24T06:18:02.548Z,97480.06
2023-03-24T06:20:34.485Z,97487.72
2023-03-24T06:23:28.781Z,97487.00
2023-03-24T06:26:08.940Z,97487.97
2023-03-24T06:28:39.854Z,97482.84
2023-03-24T06:31:18.635Z,97492.22
2023-03-24T06:33:47.480Z,97495.47
2023-03-24T06:36:16.300Z,97496.00
2023-03-24T06:38:45.479Z,97494.47
2023-03-24T06:41:17.753Z,97495.91
2023-03-24T06:43:45.925Z,97488.56
2023-03-24T06:46:13.745Z,97498.09
2023-03-24T06:48:44.911Z,97501.03
2023-03-24T06:51:12.657Z,97498.56
2023-03-24T06:53:41.640Z,97502.19
2023-03-24T06:56:09.514Z,97504.81
2023-03-24T06:58:44.595Z,97501.59
2023-03-24T07:01:20.343Z,97496.78
2023-03-24T07:03:57.513Z,97501.16
2023-03-24T07:07:22.460Z,97493.06
2023-03-24T07:09:56.646Z,97503.88
2023-03-24T07:12:24.556Z,97491.31
2023-03-24T07:14:52.323Z,97494.72
2023-03-24T07:17:20.448Z,97483.94
2023-03-24T07:19:56.878Z,97497.38
2023-03-24T07:22:42.989Z,97486.88
2023-03-24T07:25:41.091Z,97492.25
2023-03-24T07:28:16.344Z,97493.28
2023-03-24T07:30:44.185Z,97490.78
2023-03-24T07:33:13.124Z,97496.34
2023-03-24T07:35:45.979Z,97486.91
2023-03-24T07:38:14.114Z,97484.63
2023-03-24T07:40:42.149Z,97487.41
2023-03-24T07:43:09.996Z,97483.28
2023-03-24T07:45:52.859Z,97483.53
2023-03-24T07:48:20.684Z,97467.78
2023-03-24T07:50:48.428Z,97468.06
2023-03-24T07:53:36.951Z,97467.63
2023-03-24T07:56:05.265Z,97468.44
2023-03-24T07:58:33.608Z,97465.97
2023-03-24T08:01:21.560Z,97461.03
2023-03-24T08:03:56.784Z,97457.41
2023-03-24T08:06:43.747Z,97460.53
2023-03-24T08:09:12.281Z,97458.56
2023-03-24T08:11:39.996Z,97460.63
2023-03-24T08:14:07.782Z,97454.44
2023-03-24T08:16:35.521Z,97446.66
2023-03-24T08:19:03.446Z,97451.50
2023-03-24T08:21:31.110Z,97443.47
2023-03-24T08:23:58.851Z,97434.00
2023-03-24T08:26:26.953Z,97446.66
2023-03-24T08:28:54.798Z,97429.72
2023-03-24T08:31:22.586Z,97425.97
2023-03-24T08:33:50.368Z,97417.00
2023-03-24T08:36:18.055Z,97419.31
2023-03-24T08:38:48.147Z,97422.75
2023-03-24T08:41:16.841Z,97407.69
2023-03-24T08:43:44.545Z,97401.69
2023-03-24T08:46:13.925Z,97400.88
2023-03-24T08:48:42.036Z,97405.41
2023-03-24T08:51:17.194Z,97399.00
2023-03-24T08:53:45.026Z,97383.22
2023-03-24T08:56:12.841Z,97383.41
2023-03-24T08:58:40.564Z,97381.34
2023-03-24T09:01:08.842Z,97382.94
2023-03-24T09:03:39.542Z,97375.13
2023-03-24T09:06:07.861Z,97364.88
2023-03-24T09:08:35.581Z,97365.94
2023-03-24T09:11:03.508Z,97361.56
2023-03-24T09:13:31.276Z,97369.41
2023-03-24T09:16:01.536Z,97363.38
2023-03-24T09:18:29.345Z,97356.84
2023-03-24T09:20:57.099Z,97351.69
2023-03-24T09:23:24.827Z,97357.44
2023-03-24T09:25:52.716Z,97353.47
2023-03-24T09:28:21.361Z,97338.63
2023-03-24T09:30:49.475Z,97345.94
2023-03-24T09:33:17.562Z,97349.09
2023-03-24T09:35:45.445Z,97345.06
2023-03-24T09:38:13.213Z,97338.41
2023-03-24T09:40:41.011Z,97337.44
2023-03-24T09:43:44.016Z,97325.28
2023-03-24T09:46:14.401Z,97328.66
2023-03-24T09:48:51.484Z,97320.47
2023-03-24T09:51:25.331Z,97327.94
2023-03-24T09:54:16.774Z,97320.84
2023-03-24T09:56:45.886Z,97311.22
2023-03-24T09:59:19.430Z,97307.31
2023-03-24T10:01:47.195Z,97306.41
2023-03-24T10:04:17.986Z,97299.97
2023-03-24T10:06:45.862Z,97297.59
2023-03-24T10:09:31.099Z,97288.31
2023-03-24T10:12:23.251Z,97294.19
2023-03-24T10:15:37.864Z,97284.63
2023-03-24T10:18:12.443Z,97279.53
2023-03-24T10:20:54.715Z,97278.59
2023-03-24T10:23:36.858Z,97289.09
2023-03-24T10:26:29.266Z,97279.88
2023-03-24T10:29:04.693Z,97277.03
2023-03-24T10:31:33.576Z,97267.19
2023-03-24T10:34:01.313Z,97279.75
2023-03-24T10:36:29.237Z,97275.69
2023-03-24T10:38:58.688Z,97269.66
2023-03-24T10:41:28.257Z,97262.59
2023-03-24T10:43:56.961Z,97271.50
2023-03-24T10:46:26.226Z,97262.66
2023-03-24T10:48:55.746Z,97260.97
2023-03-24T10:51:27.697Z,97253.00
2023-03-24T10:54:22.950Z,97246.59
2023-03-24T10:57:00.694Z,97241.13
2023-03-24T10:59:33.199Z,97236.44
2023-03-24T11:02:16.549Z,97237.38
2023-03-24T11:04:48.342Z,97235.91
2023-03-24T11:07:21.041Z,97220.16
2023-03-24T11:10:02.722Z,97227.44
2023-03-24T11:12:35.125Z,97223.66
2023-03-24T11:15:17.536Z,97214.78
2023-03-24T11:17:57.743Z,97209.31
2023-03-24T11:20:35.815Z,97196.22
2023-03-24T11:23:03.518Z,97200.69
2023-03-24T11:25:34.329Z,97197.72
2023-03-24T11:28:24.443Z,97196.19
2023-03-24T11:30:53.103Z,97188.66
2023-03-24T11:33:34.954Z,97181.78
2023-03-24T11:36:45.423Z,97168.81
2023-03-24T11:39:23.218Z,97168.78
2023-03-24T11:42:01.891Z,97180.50
2023-03-24T11:44:38.398Z,97175.69
2023-03-24T11:47:08.800Z,97173.47
2023-03-24T11:49:40.332Z,97165.97
2023-03-24T11:52:13.388Z,97163.56
2023-03-24T11:54:41.533Z,97160.22
2023-03-24T11:57:13.162Z,97158.03
2023-03-24T11:59:51.292Z,97148.91
2023-03-24T12:02:52.704Z,97145.53
2023-03-24T12:05:51.322Z,97143.34
2023-03-24T12:08:57.576Z,97141.38
2023-03-24T12:11:29.638Z,97140.50
2023-03-24T12:13:57.458Z,97140.44
2023-03-24T12:16:39.806Z,97135.22
2023-03-24T12:19:26.623Z,97124.47
2023-03-24T12:22:03.077Z,97132.81
2023-03-24T12:24:50.965Z,97118.94
2023-03-24T12:27:57.528Z,97120.88
2023-03-24T12:30:35.863Z,97113.59
2023-03-24T12:33:18.486Z,97112.50
2023-03-24T12:36:04.316Z,97108.03
2023-03-24T12:38:46.387Z,97099.72
2023-03-24T12:41:39.029Z,97104.06
2023-03-24T12:44:33.805Z,97097.00
2023-03-24T12:47:35.776Z,97098.22
2023-03-24T12:50:27.168Z,97082.97
2023-03-24T12:53:07.721Z,97080.19
2023-03-24T12:55:50.617Z,97086.38
2023-03-24T12:58:23.550Z,97072.38
2023-03-24T13:01:13.214Z,97071.59
2023-03-24T13:03:53.625Z,97074.81
2023-03-24T13:06:29.334Z,97070.50
2023-03-24T13:09:08.261Z,97061.56
2023-03-24T13:11:46.808Z,97057.69
2023-03-24T13:14:18.138Z,97057.84
2023-03-24T13:16:46.490Z,97055.13
2023-03-24T13:19:22.138Z,97049.72
2023-03-24T13:21:50.978Z,97049.03
2023-03-24T13:24:18.856Z,97045.22
2023-03-24T13:27:27.636Z,97048.31
2023-03-24T13:30:22.503Z,97031.72
2023-03-24T13:32:52.653Z,97030.41
2023-03-24T13:35:53.039Z,97027.91
2023-03-24T13:38:33.856Z,97027.63
2023-03-24T13:41:06.384Z,97018.09
2023-03-24T13:43:35.297Z,97024.00
2023-03-24T13:46:07.737Z,97019.03
2023-03-24T13:48:43.305Z,97020.13
2023-03-24T13:51:30.326Z,97018.41
2023-03-24T13:54:18.472Z,97013.50
2023-03-24T13:57:03.568Z,97009.31
2023-03-24T14:00:14.368Z,96999.19
2023-03-24T14:02:52.787Z,97008.00
2023-03-24T14:05:23.955Z,97003.09
2023-03-24T14:08:01.073Z,97006.72
2023-03-24T14:10:40.878Z,97007.72
2023-03-24T14:13:11.610Z,97004.97
2023-03-24T14:15:57.616Z,96999.34
2023-03-24T14:18:26.076Z,97003.88
2023-03-24T14:20:57.348Z,96995.63
2023-03-24T14:24:04.055Z,97004.19
2023-03-24T14:26:34.351Z,96998.09
2023-03-24T14:29:02.147Z,96990.16
2023-03-24T14:31:31.298Z,96996.38
2023-03-24T14:34:20.364Z,96991.22
2023-03-24T14:36:50.315Z,96983.91
2023-03-24T14:39:46.355Z,96990.75
2023-03-24T14:42:32.596Z,96987.56
2023-03-24T14:45:01.523Z,96987.25
2023-03-24T14:47:33.582Z,96987.16
2023-03-24T14:50:03.922Z,96984.47
2023-03-24T14:52:32.033Z,96984.91
2023-03-24T14:55:01.164Z,96981.44
2023-03-24T14:57:34.706Z,96992.69
2023-03-24T15:00:02.588Z,96980.66
2023-03-24T15:02:38.010Z,96987.22
2023-03-24T15:05:17.913Z,96985.56
2023-03-24T15:07:47.150Z,96986.13
2023-03-24T15:10:19.575Z,96988.72
2023-03-24T15:12:48.025Z,96982.69
2023-03-24T15:15:21.338Z,96993.41
2023-03-24T15:17:49.773Z,96997.59
2023-03-24T15:20:24.355Z,96996.91
2023-03-24T15:22:55.118Z,96994.53
2023-03-24T15:25:29.090Z,96988.34
2023-03-24T15:27:57.802Z,96989.75
2023-03-24T15:30:25.889Z,96996.44
2023-03-24T15:32:54.988Z,96997.22
2023-03-24T15:35:23.093Z,96998.69
2023-03-24T15:37:52.671Z,96995.13
2023-03-24T15:40:26.421Z,96994.75
2023-03-24T15:42:55.657Z,96999.69
2023-03-24T15:45:28.709Z,96993.63
2023-03-24T15:47:56.756Z,97001.03
2023-03-24T15:50:32.778Z,96996.03
2023-03-24T15:53:15.911Z,97001.47
2023-03-24T15:55:43.741Z,97004.28
2023-03-24T15:58:32.139Z,97009.59
2023-03-24T16:01:00.909Z,97013.59
2023-03-24T16:03:30.273Z,97016.78
2023-03-24T16:05:58.165Z,97016.03
2023-03-24T16:08:41.693Z,97021.66
2023-03-24T16:11:13.349Z,97027.47
2023-03-24T16:13:42.930Z,97029.63
2023-03-24T16:16:13.363Z,97028.69
2023-03-24T16:18:42.765Z,97044.06
2023-03-24T16:21:21.895Z,97039.75
2023-03-24T16:23:50.444Z,97036.56
2023-03-24T16:26:38.283Z,97035.53
2023-03-24T16:29:20.008Z,97031.59
2023-03-24T16:31:50.739Z,97032.72
2023-03-24T16:34:19.397Z,97038.25
2023-03-24T16:36:48.106Z,97033.72
2023-03-24T16:39:18.070Z,97032.50
2023-03-24T16:41:45.830Z,97033.13
2023-03-24T16:44:13.609Z,97036.50
2023-03-24T16:46:41.859Z,97033.91
2023-03-24T16:49:12.870Z,97036.25
2023-03-24T16:51:40.814Z,97040.25
2023-03-24T16:54:09.301Z,97039.91
2023-03-24T16:56:37.391Z,97040.09
2023-03-24T16:59:05.395Z,97041.13
2023-03-24T17:01:38.441Z,97037.22
2023-03-24T17:04:09.719Z,97039.31
2023-03-24T17:06:39.005Z,97043.22
2023-03-24T17:09:06.922Z,97041.59
2023-03-24T17:11:36.728Z,97041.38
2023-03-24T17:14:05.770Z,97053.53
2023-03-24T17:16:36.727Z,97050.59
2023-03-24T17:19:07.787Z,97050.47
2023-03-24T17:21:37.967Z,97053.91
2023-03-24T17:24:06.804Z,97053.63
2023-03-24T17:26:34.534Z,97050.25
2023-03-24T17:29:02.317Z,97056.47
2023-03-24T17:31:30.396Z,97048.19
2023-03-24T17:34:00.278Z,97053.50
2023-03-24T17:36:29.723Z,97052.34
2023-03-24T17:38:57.435Z,97057.53
2023-03-24T17:41:25.519Z,97059.25
2023-03-24T17:43:53.189Z,97053.38
2023-03-24T17:46:21.035Z,97061.28
2023-03-24T17:48:49.746Z,97059.94
2023-03-24T17:51:17.602Z,97054.03
2023-03-24T17:53:46.571Z,97054.00
2023-03-24T17:56:14.343Z,97059.97
2023-03-24T17:58:47.416Z,97062.31
2023-03-24T18:01:18.271Z,97063.22
2023-03-24T18:03:46.242Z,97057.06
2023-03-24T18:06:16.420Z,97059.31
2023-03-24T18:08:44.316Z,97058.03
2023-03-24T18:11:13.345Z,97065.50
2023-03-24T18:13:41.460Z,97065.91
2023-03-24T18:16:19.854Z,97065.13
2023-03-24T18:18:49.233Z,97059.34
2023-03-24T18:21:16.949Z,97055.19
2023-03-24T18:23:46.529Z,97057.00
2023-03-24T18:26:15.080Z,97055.63
2023-03-24T18:28:43.034Z,97051.72
2023-03-24T18:31:12.927Z,97055.72
2023-03-24T18:33:42.796Z,97045.75
2023-03-24T18:36:10.746Z,97049.06
2023-03-24T18:38:38.978Z,97052.09
2023-03-24T18:41:07.669Z,97065.34
2023-03-24T18:43:37.873Z,97048.66
2023-03-24T18:46:09.481Z,97057.00
2023-03-24T18:48:37.878Z,97062.69
2023-03-24T18:51:06.060Z,97060.13
2023-03-24T18:53:37.093Z,97066.38
2023-03-24T18:56:06.010Z,97072.63
2023-03-24T18:58:34.214Z,97070.88
2023-03-24T19:01:09.822Z,97068.56
2023-03-24T19:03:39.102Z,97058.38
2023-03-24T19:06:07.406Z,97057.88
2023-03-24T19:08:37.836Z,97037.38
2023-03-24T19:11:06.552Z,97049.44
2023-03-24T19:13:34.285Z,97042.06
2023-03-24T19:16:02.149Z,97043.00
2023-03-24T19:18:29.868Z,97038.22
2023-03-24T19:20:58.174Z,97052.22
2023-03-24T19:23:25.979Z,97047.22
2023-03-24T19:25:55.075Z,97051.78
2023-03-24T19:28:29.781Z,97048.22
2023-03-24T19:30:59.171Z,97043.47
2023-03-24T19:33:27.451Z,97039.16
2023-03-24T19:35:55.230Z,97038.66
2023-03-24T19:38:23.977Z,97035.97
2023-03-24T19:40:52.789Z,97027.47
2023-03-24T19:43:21.483Z,97030.56
2023-03-24T19:45:55.971Z,97030.47
2023-03-24T19:48:23.728Z,97031.31
2023-03-24T19:50:52.482Z,97034.34
2023-03-24T19:53:20.779Z,97021.03
2023-03-24T19:55:48.802Z,97031.59
2023-03-24T19:58:17.270Z,97030.88
2023-03-24T20:00:44.961Z,97029.91
2023-03-24T20:03:12.818Z,97023.56
2023-03-24T20:05:40.810Z,97028.09
2023-03-24T20:08:08.574Z,97015.97
2023-03-24T20:10:37.075Z,97016.81
2023-03-24T20:13:04.774Z,97017.09
2023-03-24T20:15:32.437Z,97006.31
2023-03-24T20:18:00.804Z,97010.34
2023-03-24T20:20:28.605Z,97012.81
2023-03-24T20:22:56.387Z,97017.25
2023-03-24T20:25:24.096Z,97008.88
2023-03-24T20:27:51.980Z,97013.22
2023-03-24T20:30:20.689Z,97011.09
2023-03-24T20:32:48.719Z,97010.53
2023-03-24T20:35:16.562Z,97012.44
2023-03-24T20:37:44.536Z,97009.06
2023-03-24T20:40:12.375Z,97014.25
2023-03-24T20:42:40.101Z,97015.91
2023-03-24T20:45:08.474Z,97013.50
2023-03-24T20:47:36.635Z,97016.41
2023-03-24T20:50:06.114Z,97003.25
2023-03-24T20:52:34.991Z,96996.34
2023-03-24T20:55:06.305Z,96996.53
2023-03-24T20:57:34.310Z,96993.22
2023-03-24T21:00:02.269Z,96994.13
2023-03-24T21:05:17.030Z,96988.19
2023-03-24T21:07:45.595Z,96994.75
2023-03-24T21:10:14.069Z,96991.09
2023-03-24T21:12:53.624Z,96993.06
2023-03-24T21:15:24.952Z,96994.69
2023-03-24T21:20:39.918Z,96996.69
2023-03-24T21:23:09.612Z,96991.09
2023-03-24T21:25:37.584Z,97001.09
2023-03-24T21:28:05.279Z,96998.19
2023-03-24T21:30:33.007Z,96989.75
2023-03-24T21:33:01.476Z,96998.50
2023-03-24T21:38:18.792Z,96986.03
2023-03-24T21:40:46.604Z,96990.63
2023-03-24T21:43:14.865Z,96989.28
2023-03-24T21:45:46.447Z,96995.00
2023-03-24T21:48:16.195Z,96986.97
2023-03-24T21:53:29.544Z,96989.97
2023-03-24T21:56:04.775Z,96990.31
2023-03-24T21:58:32.893Z,96988.56
2023-03-24T22:01:01.404Z,96996.59
2023-03-24T22:03:30.335Z,96991.88
2023-03-24T22:05:58.080Z,96996.91
2023-03-24T22:08:26.936Z,96994.25
2023-03-24T22:10:58.496Z,96992.25
2023-03-24T22:13:29.245Z,96986.88
2023-03-24T22:15:58.996Z,96989.09
2023-03-24T22:18:27.596Z,96987.34
2023-03-24T22:21:04.107Z,96983.84
2023-03-24T22:23:36.100Z,96996.63
2023-03-24T22:26:14.428Z,96987.72
2023-03-24T22:28:42.618Z,96982.97
2023-03-24T22:31:12.171Z,96983.41
2023-03-24T22:33:40.700Z,96983.38
2023-03-24T22:36:08.995Z,96991.63
2023-03-24T22:38:36.800Z,96998.16
2023-03-24T22:41:06.435Z,96987.59
2023-03-24T22:43:35.197Z,96979.66
2023-03-24T22:46:03.274Z,96995.78
2023-03-24T22:48:31.307Z,96984.72
2023-03-24T22:50:59.046Z,97004.72
2023-03-24T22:53:26.946Z,96975.53
2023-03-24T22:55:54.731Z,96986.28
2023-03-24T22:58:22.453Z,96981.25
2023-03-24T23:00:50.976Z,96976.63
2023-03-24T23:03:18.704Z,96978.59
2023-03-24T23:05:46.526Z,96983.47
2023-03-24T23:08:15.460Z,96985.31
2023-03-24T23:10:43.879Z,96977.75
2023-03-24T23:13:11.814Z,96989.84
2023-03-24T23:15:40.110Z,96983.00
2023-03-24T23:18:08.389Z,96980.59
2023-03-24T23:20:36.553Z,96977.59
2023-03-24T23:23:05.908Z,96975.75
2023-03-24T23:25:39.021Z,96973.53
2023-03-24T23:28:06.736Z,96974.63
2023-03-24T23:30:34.576Z,96969.16
2023-03-24T23:33:04.076Z,96968.38
2023-03-24T23:35:33.135Z,96962.56
2023-03-24T23:38:02.422Z,96968.72
2023-03-24T23:40:30.134Z,96964.06
2023-03-24T23:42:57.869Z,96954.81
2023-03-24T23:45:25.591Z,96958.75
2023-03-24T23:47:53.419Z,96955.31
2023-03-24T23:50:21.573Z,96952.38
2023-03-24T23:52:49.334Z,96959.03
2023-03-24T23:55:17.812Z,96960.22
2023-03-24T23:57:46.493Z,96955.31
